sensor_id;sensor_type;location;lat;lon;timestamp;pressure;altitude;pressure_sealevel;temperature;humidity
9721;BME280;4899;42.644;23.366;2022-07-17T00:00:27;94657.47;;;20.75;100.00
9721;BME280;4899;42.644;23.366;2022-07-17T00:02:54;94642.72;;;20.56;100.00
9721;BME280;4899;42.644;23.366;2022-07-17T00:05:21;94701.75;;;20.94;100.00
9721;BME280;4899;42.644;23.366;2022-07-17T00:07:48;94650.25;;;20.57;100.00
9721;BME280;4899;42.644;23.366;2022-07-17T00:10:15;94710.38;;;20.98;100.00
9721;BME280;4899;42.644;23.366;2022-07-17T00:12:42;94704.16;;;20.73;100.00
9721;BME280;4899;42.644;23.366;2022-07-17T00:15:11;94713.69;;;20.92;100.00
9721;BME280;4899;42.644;23.366;2022-07-17T00:17:38;94692.59;;;20.74;100.00
9721;BME280;4899;42.644;23.366;2022-07-17T00:20:07;94662.88;;;20.52;100.00
9721;BME280;4899;42.644;23.366;2022-07-17T00:22:34;94679.06;;;20.65;100.00
9721;BME280;4899;42.644;23.366;2022-07-17T00:25:01;94720.34;;;20.85;100.00
9721;BME280;4899;42.644;23.366;2022-07-17T00:27:28;94717.22;;;20.73;100.00
9721;BME280;4899;42.644;23.366;2022-07-17T00:29:55;94724.28;;;20.69;100.00
9721;BME280;4899;42.644;23.366;2022-07-17T00:32:23;94706.78;;;20.73;100.00
9721;BME280;4899;42.644;23.366;2022-07-17T00:34:50;94726.50;;;20.67;100.00
9721;BME280;4899;42.644;23.366;2022-07-17T00:37:17;94692.75;;;20.54;100.00
9721;BME280;4899;42.644;23.366;2022-07-17T00:39:44;94665.91;;;20.24;100.00
9721;BME280;4899;42.644;23.366;2022-07-17T00:42:11;94719.81;;;20.69;100.00
9721;BME280;4899;42.644;23.366;2022-07-17T00:44:40;94661.06;;;20.26;100.00
9721;BME280;4899;42.644;23.366;2022-07-17T00:47:12;94691.22;;;20.50;100.00
9721;BME280;4899;42.644;23.366;2022-07-17T00:49:41;94727.63;;;20.66;100.00
9721;BME280;4899;42.644;23.366;2022-07-17T00:52:12;94719.78;;;20.66;100.00
9721;BME280;4899;42.644;23.366;2022-07-17T00:54:40;94722.34;;;20.62;100.00
9721;BME280;4899;42.644;23.366;2022-07-17T00:57:10;94693.09;;;20.49;100.00
9721;BME280;4899;42.644;23.366;2022-07-17T00:59:38;94720.16;;;20.68;100.00
9721;BME280;4899;42.644;23.366;2022-07-17T01:02:06;94721.63;;;20.65;100.00
9721;BME280;4899;42.644;23.366;2022-07-17T01:04:34;94725.28;;;20.57;100.00
9721;BME280;4899;42.644;23.366;2022-07-17T01:07:04;94733.94;;;20.61;100.00
9721;BME280;4899;42.644;23.366;2022-07-17T01:09:32;94711.34;;;20.46;100.00
9721;BME280;4899;42.644;23.366;2022-07-17T01:12:00;94666.16;;;20.12;100.00
9721;BME280;4899;42.644;23.366;2022-07-17T01:14:27;94735.31;;;20.51;100.00
9721;BME280;4899;42.644;23.366;2022-07-17T01:16:54;94708.38;;;20.17;100.00
9721;BME280;4899;42.644;23.366;2022-07-17T01:19:21;94678.00;;;20.06;100.00
9721;BME280;4899;42.644;23.366;2022-07-17T01:21:50;94747.03;;;20.35;100.00
9721;BME280;4899;42.644;23.366;2022-07-17T01:24:17;94732.00;;;20.28;100.00
9721;BME280;4899;42.644;23.366;2022-07-17T01:26:47;94712.44;;;20.11;100.00
9721;BME280;4899;42.644;23.366;2022-07-17T01:29:16;94709.34;;;20.06;100.00
9721;BME280;4899;42.644;23.366;2022-07-17T01:31:44;94727.41;;;20.18;100.00
9721;BME280;4899;42.644;23.366;2022-07-17T01:34:12;94728.56;;;20.20;100.00
9721;BME280;4899;42.644;23.366;2022-07-17T01:36:39;94722.91;;;20.15;100.00
9721;BME280;4899;42.644;23.366;2022-07-17T01:39:08;94727.41;;;20.18;100.00
9721;BME280;4899;42.644;23.366;2022-07-17T01:41:35;94725.91;;;20.17;100.00
9721;BME280;4899;42.644;23.366;2022-07-17T01:44:02;94646.03;;;19.56;100.00
9721;BME280;4899;42.644;23.366;2022-07-17T01:46:30;94709.97;;;19.95;100.00
9721;BME280;4899;42.644;23.366;2022-07-17T01:48:57;94691.00;;;19.72;100.00
9721;BME280;4899;42.644;23.366;2022-07-17T01:51:26;94739.94;;;20.05;100.00
9721;BME280;4899;42.644;23.366;2022-07-17T01:53:53;94708.06;;;19.92;100.00
9721;BME280;4899;42.644;23.366;2022-07-17T01:56:21;94697.66;;;19.96;100.00
9721;BME280;4899;42.644;23.366;2022-07-17T01:58:48;94711.66;;;19.54;100.00
9721;BME280;4899;42.644;23.366;2022-07-17T02:01:15;94725.69;;;18.39;100.00
9721;BME280;4899;42.644;23.366;2022-07-17T02:03:42;94705.50;;;17.46;100.00
9721;BME280;4899;42.644;23.366;2022-07-17T02:06:09;94698.59;;;17.19;100.00
9721;BME280;4899;42.644;23.366;2022-07-17T02:08:36;94735.28;;;17.33;100.00
9721;BME280;4899;42.644;23.366;2022-07-17T02:11:02;94735.22;;;17.61;100.00
9721;BME280;4899;42.644;23.366;2022-07-17T02:13:31;94721.13;;;17.46;100.00
9721;BME280;4899;42.644;23.366;2022-07-17T02:15:58;94700.03;;;17.51;100.00
9721;BME280;4899;42.644;23.366;2022-07-17T02:18:24;94677.59;;;17.28;100.00
9721;BME280;4899;42.644;23.366;2022-07-17T02:20:51;94752.31;;;17.78;100.00
9721;BME280;4899;42.644;23.366;2022-07-17T02:23:18;94712.97;;;17.48;100.00
9721;BME280;4899;42.644;23.366;2022-07-17T02:25:45;94659.72;;;17.26;100.00
9721;BME280;4899;42.644;23.366;2022-07-17T02:28:12;94717.66;;;17.74;100.00
9721;BME280;4899;42.644;23.366;2022-07-17T02:30:40;94624.69;;;17.20;100.00
9721;BME280;4899;42.644;23.366;2022-07-17T02:33:07;94724.75;;;17.93;100.00
9721;BME280;4899;42.644;23.366;2022-07-17T02:35:34;94730.34;;;18.10;100.00
9721;BME280;4899;42.644;23.366;2022-07-17T02:38:01;94733.06;;;18.18;100.00
9721;BME280;4899;42.644;23.366;2022-07-17T02:40:27;94733.56;;;18.23;100.00
9721;BME280;4899;42.644;23.366;2022-07-17T02:42:54;94702.78;;;17.90;100.00
9721;BME280;4899;42.644;23.366;2022-07-17T02:45:21;94715.94;;;18.17;100.00
9721;BME280;4899;42.644;23.366;2022-07-17T02:48:10;94739.66;;;18.31;100.00
9721;BME280;4899;42.644;23.366;2022-07-17T02:50:36;94744.78;;;18.27;100.00
9721;BME280;4899;42.644;23.366;2022-07-17T02:53:04;94748.84;;;18.25;100.00
9721;BME280;4899;42.644;23.366;2022-07-17T02:55:31;94744.19;;;18.14;100.00
9721;BME280;4899;42.644;23.366;2022-07-17T02:57:58;94724.84;;;17.96;100.00
9721;BME280;4899;42.644;23.366;2022-07-17T03:00:24;94709.19;;;17.77;100.00
9721;BME280;4899;42.644;23.366;2022-07-17T03:02:52;94749.38;;;18.34;100.00
9721;BME280;4899;42.644;23.366;2022-07-17T03:05:22;94705.81;;;18.11;100.00
9721;BME280;4899;42.644;23.366;2022-07-17T03:07:48;94751.81;;;18.42;100.00
9721;BME280;4899;42.644;23.366;2022-07-17T03:10:15;94736.34;;;18.34;100.00
9721;BME280;4899;42.644;23.366;2022-07-17T03:12:43;94713.75;;;18.19;100.00
9721;BME280;4899;42.644;23.366;2022-07-17T03:15:10;94788.13;;;18.55;100.00
9721;BME280;4899;42.644;23.366;2022-07-17T03:17:38;94754.53;;;18.50;100.00
9721;BME280;4899;42.644;23.366;2022-07-17T03:20:06;94733.63;;;18.27;100.00
9721;BME280;4899;42.644;23.366;2022-07-17T03:22:35;94685.09;;;17.99;100.00
9721;BME280;4899;42.644;23.366;2022-07-17T03:25:02;94765.00;;;18.34;100.00
9721;BME280;4899;42.644;23.366;2022-07-17T03:27:29;94766.94;;;18.56;100.00
9721;BME280;4899;42.644;23.366;2022-07-17T03:29:56;94774.09;;;18.59;100.00
9721;BME280;4899;42.644;23.366;2022-07-17T03:32:22;94783.84;;;18.62;100.00
9721;BME280;4899;42.644;23.366;2022-07-17T03:34:49;94781.66;;;18.64;100.00
9721;BME280;4899;42.644;23.366;2022-07-17T03:37:16;94776.94;;;18.54;100.00
9721;BME280;4899;42.644;23.366;2022-07-17T03:39:44;94786.53;;;18.66;100.00
9721;BME280;4899;42.644;23.366;2022-07-17T03:42:11;94764.75;;;18.39;100.00
9721;BME280;4899;42.644;23.366;2022-07-17T03:44:38;94754.13;;;18.48;100.00
9721;BME280;4899;42.644;23.366;2022-07-17T03:47:05;94802.75;;;18.79;100.00
9721;BME280;4899;42.644;23.366;2022-07-17T03:49:32;94802.91;;;18.86;100.00
9721;BME280;4899;42.644;23.366;2022-07-17T03:51:59;94770.53;;;18.67;100.00
9721;BME280;4899;42.644;23.366;2022-07-17T03:54:26;94755.72;;;18.71;100.00
9721;BME280;4899;42.644;23.366;2022-07-17T03:56:54;94760.03;;;18.83;100.00
9721;BME280;4899;42.644;23.366;2022-07-17T03:59:21;94837.56;;;19.28;100.00
9721;BME280;4899;42.644;23.366;2022-07-17T04:01:48;94795.75;;;19.02;100.00
9721;BME280;4899;42.644;23.366;2022-07-17T04:04:15;94783.88;;;19.04;100.00
9721;BME280;4899;42.644;23.366;2022-07-17T04:06:42;94822.72;;;19.32;100.00
9721;BME280;4899;42.644;23.366;2022-07-17T04:09:09;94833.84;;;19.29;100.00
9721;BME280;4899;42.644;23.366;2022-07-17T04:11:36;94829.47;;;19.33;100.00
9721;BME280;4899;42.644;23.366;2022-07-17T04:14:04;94786.41;;;19.01;100.00
9721;BME280;4899;42.644;23.366;2022-07-17T04:16:31;94746.38;;;18.90;100.00
9721;BME280;4899;42.644;23.366;2022-07-17T04:18:58;94830.25;;;19.57;100.00
9721;BME280;4899;42.644;23.366;2022-07-17T04:21:25;94784.41;;;19.14;100.00
9721;BME280;4899;42.644;23.366;2022-07-17T04:23:52;94848.34;;;19.69;100.00
9721;BME280;4899;42.644;23.366;2022-07-17T04:26:19;94807.50;;;19.57;100.00
9721;BME280;4899;42.644;23.366;2022-07-17T04:28:45;94817.06;;;19.73;100.00
9721;BME280;4899;42.644;23.366;2022-07-17T04:31:14;94848.78;;;19.97;100.00
9721;BME280;4899;42.644;23.366;2022-07-17T04:33:41;94788.66;;;19.67;100.00
9721;BME280;4899;42.644;23.366;2022-07-17T04:36:08;94834.13;;;20.16;100.00
9721;BME280;4899;42.644;23.366;2022-07-17T04:38:35;94846.63;;;20.29;100.00
9721;BME280;4899;42.644;23.366;2022-07-17T04:41:02;94797.88;;;19.84;100.00
9721;BME280;4899;42.644;23.366;2022-07-17T04:43:29;94817.72;;;20.15;100.00
9721;BME280;4899;42.644;23.366;2022-07-17T04:45:56;94793.50;;;20.18;100.00
9721;BME280;4899;42.644;23.366;2022-07-17T04:48:24;94824.81;;;20.41;100.00
9721;BME280;4899;42.644;23.366;2022-07-17T04:50:51;94863.44;;;20.85;100.00
9721;BME280;4899;42.644;23.366;2022-07-17T04:53:18;94820.63;;;20.67;98.62
9721;BME280;4899;42.644;23.366;2022-07-17T04:55:45;94828.47;;;21.00;100.00
9721;BME280;4899;42.644;23.366;2022-07-17T04:58:11;94870.75;;;21.36;96.83
9721;BME280;4899;42.644;23.366;2022-07-17T05:00:38;94869.97;;;21.32;99.76
9721;BME280;4899;42.644;23.366;2022-07-17T05:03:05;94880.44;;;21.32;89.92
9721;BME280;4899;42.644;23.366;2022-07-17T05:05:33;94881.50;;;21.27;86.53
9721;BME280;4899;42.644;23.366;2022-07-17T05:08:00;94887.19;;;21.33;91.43
9721;BME280;4899;42.644;23.366;2022-07-17T05:10:27;94884.56;;;21.33;87.91
9721;BME280;4899;42.644;23.366;2022-07-17T05:12:54;94885.38;;;21.40;92.97
9721;BME280;4899;42.644;23.366;2022-07-17T05:15:21;94888.69;;;21.34;98.34
9721;BME280;4899;42.644;23.366;2022-07-17T05:17:48;94877.16;;;21.08;91.95
9721;BME280;4899;42.644;23.366;2022-07-17T05:20:14;94824.69;;;20.94;100.00
9721;BME280;4899;42.644;23.366;2022-07-17T05:22:43;94894.09;;;21.18;99.78
9721;BME280;4899;42.644;23.366;2022-07-17T05:25:10;94871.44;;;20.99;85.70
9721;BME280;4899;42.644;23.366;2022-07-17T05:27:37;94882.06;;;21.13;80.58
9721;BME280;4899;42.644;23.366;2022-07-17T05:30:04;94881.72;;;21.15;88.75
9721;BME280;4899;42.644;23.366;2022-07-17T05:32:31;94887.13;;;21.29;84.03
9721;BME280;4899;42.644;23.366;2022-07-17T05:34:58;94889.38;;;21.31;85.62
9721;BME280;4899;42.644;23.366;2022-07-17T05:37:25;94897.41;;;21.48;85.66
9721;BME280;4899;42.644;23.366;2022-07-17T05:39:53;94894.09;;;21.55;80.94
9721;BME280;4899;42.644;23.366;2022-07-17T05:42:20;94883.53;;;21.44;81.29
9721;BME280;4899;42.644;23.366;2022-07-17T05:44:47;94875.69;;;21.44;84.76
9721;BME280;4899;42.644;23.366;2022-07-17T05:47:14;94892.59;;;21.54;87.75
9721;BME280;4899;42.644;23.366;2022-07-17T05:49:41;94892.72;;;21.65;82.93
9721;BME280;4899;42.644;23.366;2022-07-17T05:52:08;94828.78;;;21.29;79.21
9721;BME280;4899;42.644;23.366;2022-07-17T05:54:34;94899.94;;;21.78;78.48
9721;BME280;4899;42.644;23.366;2022-07-17T05:57:03;94892.94;;;21.90;82.84
9721;BME280;4899;42.644;23.366;2022-07-17T05:59:30;94897.47;;;21.96;74.97
9721;BME280;4899;42.644;23.366;2022-07-17T06:01:56;94888.88;;;21.99;77.88
9721;BME280;4899;42.644;23.366;2022-07-17T06:04:23;94897.94;;;22.05;73.17
9721;BME280;4899;42.644;23.366;2022-07-17T06:06:50;94902.47;;;22.08;76.34
9721;BME280;4899;42.644;23.366;2022-07-17T06:09:17;94880.63;;;21.97;81.60
9721;BME280;4899;42.644;23.366;2022-07-17T06:11:44;94866.00;;;21.89;78.27
9721;BME280;4899;42.644;23.366;2022-07-17T06:14:12;94875.75;;;21.96;73.17
9721;BME280;4899;42.644;23.366;2022-07-17T06:16:39;94861.56;;;22.00;67.30
9721;BME280;4899;42.644;23.366;2022-07-17T06:19:06;94894.31;;;22.21;71.22
9721;BME280;4899;42.644;23.366;2022-07-17T06:21:33;94904.38;;;22.15;72.91
9721;BME280;4899;42.644;23.366;2022-07-17T06:24:00;94918.03;;;22.38;80.15
9721;BME280;4899;42.644;23.366;2022-07-17T06:26:26;94875.94;;;22.14;70.18
9721;BME280;4899;42.644;23.366;2022-07-17T06:28:53;94865.31;;;22.03;69.82
9721;BME280;4899;42.644;23.366;2022-07-17T06:31:21;94912.78;;;22.38;69.64
9721;BME280;4899;42.644;23.366;2022-07-17T06:33:48;94877.84;;;22.20;74.43
9721;BME280;4899;42.644;23.366;2022-07-17T06:36:15;94894.00;;;22.29;71.59
9721;BME280;4899;42.644;23.366;2022-07-17T06:38:42;94911.28;;;22.37;68.42
9721;BME280;4899;42.644;23.366;2022-07-17T06:41:09;94894.84;;;22.44;72.33
9721;BME280;4899;42.644;23.366;2022-07-17T06:43:36;94909.94;;;22.58;73.58
9721;BME280;4899;42.644;23.366;2022-07-17T06:46:03;94892.72;;;22.64;78.29
9721;BME280;4899;42.644;23.366;2022-07-17T06:48:31;94847.88;;;22.21;67.81
9721;BME280;4899;42.644;23.366;2022-07-17T06:50:58;94808.91;;;22.16;68.54
9721;BME280;4899;42.644;23.366;2022-07-17T06:53:25;94884.47;;;22.65;68.90
9721;BME280;4899;42.644;23.366;2022-07-17T06:55:52;94880.75;;;22.66;71.65
9721;BME280;4899;42.644;23.366;2022-07-17T06:58:19;94940.13;;;22.99;70.50
9721;BME280;4899;42.644;23.366;2022-07-17T07:00:46;94924.38;;;22.96;67.14
9721;BME280;4899;42.644;23.366;2022-07-17T07:03:13;94914.69;;;23.07;67.32
9721;BME280;4899;42.644;23.366;2022-07-17T07:05:41;94870.28;;;22.73;75.32
9721;BME280;4899;42.644;23.366;2022-07-17T07:08:08;94915.84;;;23.13;76.60
9721;BME280;4899;42.644;23.366;2022-07-17T07:10:35;94941.75;;;23.29;70.03
9721;BME280;4899;42.644;23.366;2022-07-17T07:13:01;94936.16;;;23.30;66.75
9721;BME280;4899;42.644;23.366;2022-07-17T07:15:28;94876.78;;;23.01;70.13
9721;BME280;4899;42.644;23.366;2022-07-17T07:17:55;94874.94;;;23.09;67.78
9721;BME280;4899;42.644;23.366;2022-07-17T07:20:22;94938.06;;;23.51;66.77
9721;BME280;4899;42.644;23.366;2022-07-17T07:22:50;94888.53;;;23.32;70.48
9721;BME280;4899;42.644;23.366;2022-07-17T07:25:17;94905.81;;;23.51;65.34
9721;BME280;4899;42.644;23.366;2022-07-17T07:27:44;94929.19;;;23.81;65.47
9721;BME280;4899;42.644;23.366;2022-07-17T07:30:11;94912.25;;;23.60;66.02
9721;BME280;4899;42.644;23.366;2022-07-17T07:32:39;94939.31;;;23.97;67.24
9721;BME280;4899;42.644;23.366;2022-07-17T07:35:07;94938.97;;;24.05;64.35
9721;BME280;4899;42.644;23.366;2022-07-17T07:37:34;94924.28;;;23.97;66.50
9721;BME280;4899;42.644;23.366;2022-07-17T07:40:03;94882.59;;;23.71;69.72
9721;BME280;4899;42.644;23.366;2022-07-17T07:42:30;94926.53;;;23.99;67.37
9721;BME280;4899;42.644;23.366;2022-07-17T07:44:57;94929.94;;;23.99;67.92
9721;BME280;4899;42.644;23.366;2022-07-17T07:47:24;94945.31;;;24.01;70.46
9721;BME280;4899;42.644;23.366;2022-07-17T07:49:51;94913.03;;;23.86;65.33
9721;BME280;4899;42.644;23.366;2022-07-17T07:52:18;94895.38;;;23.69;61.71
9721;BME280;4899;42.644;23.366;2022-07-17T07:54:45;94888.22;;;23.66;62.27
9721;BME280;4899;42.644;23.366;2022-07-17T07:57:13;94915.66;;;23.97;61.25
9721;BME280;4899;42.644;23.366;2022-07-17T07:59:40;94920.91;;;24.00;60.84
9721;BME280;4899;42.644;23.366;2022-07-17T08:02:07;94930.69;;;24.24;63.24
9721;BME280;4899;42.644;23.366;2022-07-17T08:04:34;94938.59;;;24.28;62.17
9721;BME280;4899;42.644;23.366;2022-07-17T08:07:01;94929.94;;;24.24;63.21
9721;BME280;4899;42.644;23.366;2022-07-17T08:09:27;94917.53;;;24.21;59.71
9721;BME280;4899;42.644;23.366;2022-07-17T08:11:54;94883.75;;;24.05;58.98
9721;BME280;4899;42.644;23.366;2022-07-17T08:14:22;94929.22;;;24.41;57.82
9721;BME280;4899;42.644;23.366;2022-07-17T08:16:50;94894.66;;;24.32;58.55
9721;BME280;4899;42.644;23.366;2022-07-17T08:19:17;94854.06;;;24.12;58.75
9721;BME280;4899;42.644;23.366;2022-07-17T08:21:44;94916.78;;;24.56;62.00
9721;BME280;4899;42.644;23.366;2022-07-17T08:24:11;94931.03;;;24.69;59.66
9721;BME280;4899;42.644;23.366;2022-07-17T08:26:38;94869.09;;;24.36;57.85
9721;BME280;4899;42.644;23.366;2022-07-17T08:29:05;94949.41;;;24.94;57.56
9721;BME280;4899;42.644;23.366;2022-07-17T08:31:33;94895.31;;;24.79;58.76
9721;BME280;4899;42.644;23.366;2022-07-17T08:34:00;94937.34;;;25.11;55.77
9721;BME280;4899;42.644;23.366;2022-07-17T08:36:27;94940.75;;;24.97;54.86
9721;BME280;4899;42.644;23.366;2022-07-17T08:38:54;94949.03;;;24.89;57.68
9721;BME280;4899;42.644;23.366;2022-07-17T08:41:21;94940.75;;;24.94;56.64
9721;BME280;4899;42.644;23.366;2022-07-17T08:43:48;94882.94;;;24.65;56.99
9721;BME280;4899;42.644;23.366;2022-07-17T08:46:16;94939.59;;;25.16;55.63
9721;BME280;4899;42.644;23.366;2022-07-17T08:48:45;94942.22;;;25.16;55.44
9721;BME280;4899;42.644;23.366;2022-07-17T08:51:15;94885.50;;;24.87;57.63
9721;BME280;4899;42.644;23.366;2022-07-17T08:53:43;94892.94;;;25.13;56.43
9721;BME280;4899;42.644;23.366;2022-07-17T08:56:10;94875.66;;;25.12;55.73
9721;BME280;4899;42.644;23.366;2022-07-17T08:58:37;94888.38;;;25.24;51.34
9721;BME280;4899;42.644;23.366;2022-07-17T09:01:04;94917.97;;;25.53;52.87
9721;BME280;4899;42.644;23.366;2022-07-17T09:03:32;94894.00;;;25.33;54.65
9721;BME280;4899;42.644;23.366;2022-07-17T09:06:00;94919.06;;;25.59;55.15
9721;BME280;4899;42.644;23.366;2022-07-17T09:08:27;94919.84;;;25.56;54.16
9721;BME280;4899;42.644;23.366;2022-07-17T09:10:58;94903.28;;;25.49;53.11
9721;BME280;4899;42.644;23.366;2022-07-17T09:13:26;94913.78;;;25.59;54.64
9721;BME280;4899;42.644;23.366;2022-07-17T09:15:56;94909.16;;;25.77;55.87
9721;BME280;4899;42.644;23.366;2022-07-17T09:18:23;94908.41;;;25.77;54.83
9721;BME280;4899;42.644;23.366;2022-07-17T09:20:52;94916.16;;;26.02;53.15
9721;BME280;4899;42.644;23.366;2022-07-17T09:23:23;94925.56;;;26.06;53.67
9721;BME280;4899;42.644;23.366;2022-07-17T09:25:52;94905.34;;;25.89;51.67
9721;BME280;4899;42.644;23.366;2022-07-17T09:28:20;94941.44;;;25.96;50.94
9721;BME280;4899;42.644;23.366;2022-07-17T09:30:48;94920.00;;;25.90;50.49
9721;BME280;4899;42.644;23.366;2022-07-17T09:33:18;94918.00;;;26.09;50.93
9721;BME280;4899;42.644;23.366;2022-07-17T09:35:49;94927.28;;;26.24;51.59
9721;BME280;4899;42.644;23.366;2022-07-17T09:38:29;94899.97;;;26.00;48.73
9721;BME280;4899;42.644;23.366;2022-07-17T09:41:08;94886.47;;;25.94;51.32
9721;BME280;4899;42.644;23.366;2022-07-17T09:43:40;94926.97;;;26.18;48.88
9721;BME280;4899;42.644;23.366;2022-07-17T09:46:12;94935.94;;;26.24;49.33
9721;BME280;4899;42.644;23.366;2022-07-17T09:48:42;94899.97;;;26.00;48.83
9721;BME280;4899;42.644;23.366;2022-07-17T09:51:15;94934.44;;;26.23;48.56
9721;BME280;4899;42.644;23.366;2022-07-17T09:53:45;94918.94;;;26.36;47.50
9721;BME280;4899;42.644;23.366;2022-07-17T09:56:14;94891.44;;;26.30;49.94
9721;BME280;4899;42.644;23.366;2022-07-17T09:58:43;94894.75;;;26.41;47.37
9721;BME280;4899;42.644;23.366;2022-07-17T10:01:13;94898.47;;;26.47;48.21
9721;BME280;4899;42.644;23.366;2022-07-17T10:03:41;94877.91;;;26.28;47.13
9721;BME280;4899;42.644;23.366;2022-07-17T10:06:09;94928.91;;;26.59;47.46
9721;BME280;4899;42.644;23.366;2022-07-17T10:08:37;94929.25;;;26.61;47.42
9721;BME280;4899;42.644;23.366;2022-07-17T10:11:06;94907.75;;;26.62;47.96
9721;BME280;4899;42.644;23.366;2022-07-17T10:13:35;94897.50;;;26.68;49.61
9721;BME280;4899;42.644;23.366;2022-07-17T10:16:02;94915.16;;;26.75;49.17
9721;BME280;4899;42.644;23.366;2022-07-17T10:18:37;94879.19;;;26.50;48.22
9721;BME280;4899;42.644;23.366;2022-07-17T10:21:10;94918.03;;;26.87;48.12
9721;BME280;4899;42.644;23.366;2022-07-17T10:23:37;94858.81;;;26.54;48.39
9721;BME280;4899;42.644;23.366;2022-07-17T10:26:06;94903.34;;;26.86;48.44
9721;BME280;4899;42.644;23.366;2022-07-17T10:28:43;94895.53;;;26.76;48.94
9721;BME280;4899;42.644;23.366;2022-07-17T10:31:21;94891.69;;;26.84;49.80
9721;BME280;4899;42.644;23.366;2022-07-17T10:33:55;94909.16;;;27.08;49.33
9721;BME280;4899;42.644;23.366;2022-07-17T10:36:32;94876.53;;;26.88;47.86
9721;BME280;4899;42.644;23.366;2022-07-17T10:39:10;94909.69;;;27.26;46.92
9721;BME280;4899;42.644;23.366;2022-07-17T10:41:38;94900.19;;;27.33;47.57
9721;BME280;4899;42.644;23.366;2022-07-17T10:44:05;94898.00;;;27.54;46.39
9721;BME280;4899;42.644;23.366;2022-07-17T10:46:32;94894.69;;;27.77;46.01
9721;BME280;4899;42.644;23.366;2022-07-17T10:49:01;94909.28;;;27.85;45.29
9721;BME280;4899;42.644;23.366;2022-07-17T10:51:29;94899.97;;;27.77;46.03
9721;BME280;4899;42.644;23.366;2022-07-17T10:53:56;94900.22;;;28.10;47.06
9721;BME280;4899;42.644;23.366;2022-07-17T10:56:25;94852.47;;;28.40;44.19
9721;BME280;4899;42.644;23.366;2022-07-17T10:59:01;94892.53;;;30.10;43.76
9721;BME280;4899;42.644;23.366;2022-07-17T11:01:28;94902.06;;;31.52;41.05
9721;BME280;4899;42.644;23.366;2022-07-17T11:03:57;94903.09;;;32.88;39.22
9721;BME280;4899;42.644;23.366;2022-07-17T11:06:26;94884.50;;;33.59;37.76
9721;BME280;4899;42.644;23.366;2022-07-17T11:08:57;94901.06;;;34.34;35.52
9721;BME280;4899;42.644;23.366;2022-07-17T11:11:35;94893.41;;;35.66;33.85
9721;BME280;4899;42.644;23.366;2022-07-17T11:14:12;94902.09;;;37.10;31.59
9721;BME280;4899;42.644;23.366;2022-07-17T11:16:44;94876.19;;;38.07;30.30
9721;BME280;4899;42.644;23.366;2022-07-17T11:19:12;94880.38;;;38.08;31.04
9721;BME280;4899;42.644;23.366;2022-07-17T11:21:46;94886.19;;;37.86;30.63
9721;BME280;4899;42.644;23.366;2022-07-17T11:24:14;94845.16;;;37.50;30.58
9721;BME280;4899;42.644;23.366;2022-07-17T11:26:42;94875.78;;;38.75;30.81
9721;BME280;4899;42.644;23.366;2022-07-17T11:29:11;94887.00;;;38.99;29.95
9721;BME280;4899;42.644;23.366;2022-07-17T11:31:40;94841.69;;;38.66;29.06
9721;BME280;4899;42.644;23.366;2022-07-17T11:34:09;94897.19;;;39.47;28.55
9721;BME280;4899;42.644;23.366;2022-07-17T11:36:38;94894.13;;;39.28;28.42
9721;BME280;4899;42.644;23.366;2022-07-17T11:39:07;94894.06;;;39.17;28.44
9721;BME280;4899;42.644;23.366;2022-07-17T11:41:37;94890.34;;;39.46;28.48
9721;BME280;4899;42.644;23.366;2022-07-17T11:44:06;94884.78;;;39.55;27.68
9721;BME280;4899;42.644;23.366;2022-07-17T11:46:37;94875.47;;;39.93;28.08
9721;BME280;4899;42.644;23.366;2022-07-17T11:49:05;94848.88;;;40.18;26.90
9721;BME280;4899;42.644;23.366;2022-07-17T11:51:34;94862.47;;;40.51;26.43
9721;BME280;4899;42.644;23.366;2022-07-17T11:54:06;94863.09;;;38.14;28.24
9721;BME280;4899;42.644;23.366;2022-07-17T11:56:33;94861.81;;;36.66;29.69
9721;BME280;4899;42.644;23.366;2022-07-17T11:59:01;94845.66;;;34.71;32.35
9721;BME280;4899;42.644;23.366;2022-07-17T12:01:36;94840.16;;;34.20;33.27
9721;BME280;4899;42.644;23.366;2022-07-17T12:04:07;94827.72;;;36.28;30.73
9721;BME280;4899;42.644;23.366;2022-07-17T12:06:35;94842.06;;;36.01;31.47
9721;BME280;4899;42.644;23.366;2022-07-17T12:09:02;94833.63;;;34.76;32.53
9721;BME280;4899;42.644;23.366;2022-07-17T12:11:29;94828.38;;;33.72;32.89
9721;BME280;4899;42.644;23.366;2022-07-17T12:14:03;94843.97;;;33.42;34.01
9721;BME280;4899;42.644;23.366;2022-07-17T12:16:31;94843.22;;;33.11;34.20
9721;BME280;4899;42.644;23.366;2022-07-17T12:19:01;94822.38;;;33.18;34.78
9721;BME280;4899;42.644;23.366;2022-07-17T12:21:32;94838.06;;;32.85;35.56
9721;BME280;4899;42.644;23.366;2022-07-17T12:24:02;94847.16;;;32.75;34.85
9721;BME280;4899;42.644;23.366;2022-07-17T12:26:30;94836.19;;;33.66;33.99
9721;BME280;4899;42.644;23.366;2022-07-17T12:28:57;94833.53;;;32.51;35.57
9721;BME280;4899;42.644;23.366;2022-07-17T12:31:24;94822.19;;;32.82;36.28
9721;BME280;4899;42.644;23.366;2022-07-17T12:33:53;94836.25;;;32.60;35.64
9721;BME280;4899;42.644;23.366;2022-07-17T12:36:21;94847.81;;;32.44;35.82
9721;BME280;4899;42.644;23.366;2022-07-17T12:38:49;94824.97;;;32.00;35.90
9721;BME280;4899;42.644;23.366;2022-07-17T12:41:16;94842.56;;;31.59;38.16
9721;BME280;4899;42.644;23.366;2022-07-17T12:43:44;94840.66;;;31.21;37.72
9721;BME280;4899;42.644;23.366;2022-07-17T12:46:12;94776.16;;;30.92;38.40
9721;BME280;4899;42.644;23.366;2022-07-17T12:48:39;94794.97;;;30.98;37.82
9721;BME280;4899;42.644;23.366;2022-07-17T12:51:09;94786.03;;;30.66;38.99
9721;BME280;4899;42.644;23.366;2022-07-17T12:53:38;94820.50;;;30.53;40.20
9721;BME280;4899;42.644;23.366;2022-07-17T12:56:08;94824.56;;;30.29;39.26
9721;BME280;4899;42.644;23.366;2022-07-17T12:58:35;94811.75;;;30.40;40.47
9721;BME280;4899;42.644;23.366;2022-07-17T13:01:04;94780.34;;;30.22;40.03
9721;BME280;4899;42.644;23.366;2022-07-17T13:03:31;94820.47;;;30.70;40.15
9721;BME280;4899;42.644;23.366;2022-07-17T13:05:59;94794.19;;;32.21;37.83
9721;BME280;4899;42.644;23.366;2022-07-17T13:08:26;94820.16;;;33.48;36.83
9721;BME280;4899;42.644;23.366;2022-07-17T13:10:53;94828.06;;;32.77;37.81